createdAt,value
2022-11-05T00:04:28.188Z,25.25
2022-11-05T00:09:33.632Z,21.50
2022-11-05T00:14:53.754Z,23.50
2022-11-05T00:19:56.972Z,26.67
2022-11-05T00:25:14.104Z,22.35
2022-11-05T00:30:19.377Z,24.05
2022-11-05T00:35:22.532Z,24.20
2022-11-05T00:40:24.205Z,23.67
2022-11-05T00:45:25.974Z,21.48
2022-11-05T00:50:28.224Z,22.50
2022-11-05T00:55:39.897Z,24.40
2022-11-05T01:00:48.719Z,24.70
2022-11-05T01:05:56.189Z,24.35
2022-11-05T01:10:58.855Z,22.80
2022-11-05T01:16:05.997Z,22.77
2022-11-05T01:21:16.718Z,27.13
2022-11-05T01:26:18.361Z,22.73
2022-11-05T01:31:20.510Z,23.30
2022-11-05T01:36:22.151Z,26.30
2022-11-05T01:41:23.853Z,23.55
2022-11-05T01:46:29.614Z,21.63
2022-11-05T01:51:31.474Z,17.55
2022-11-05T01:56:38.107Z,15.45
2022-11-05T02:01:39.728Z,16.23
2022-11-05T02:06:48.129Z,16.90
2022-11-05T02:11:51.466Z,18.65
2022-11-05T02:17:01.361Z,20.17
2022-11-05T02:22:21.306Z,18.70
2022-11-05T02:27:44.097Z,19.52
2022-11-05T02:33:11.097Z,23.40
2022-11-05T02:38:29.702Z,17.65
2022-11-05T02:43:41.899Z,18.85
2022-11-05T02:49:10.728Z,17.30
2022-11-05T02:54:14.964Z,18.02
2022-11-05T02:59:16.490Z,17.13
2022-11-05T03:04:21.307Z,15.90
2022-11-05T03:09:54.760Z,16.27
2022-11-05T03:15:12.266Z,16.70
2022-11-05T03:20:20.064Z,15.32
2022-11-05T03:25:24.328Z,16.85
2022-11-05T03:30:26.662Z,20.92
2022-11-05T03:35:34.360Z,25.33
2022-11-05T03:40:38.750Z,31.15
2022-11-05T03:46:06.559Z,32.00
2022-11-05T03:51:32.073Z,31.15
2022-11-05T03:56:42.602Z,32.13
2022-11-05T04:01:44.346Z,34.25
2022-11-05T04:07:04.513Z,31.33
2022-11-05T04:12:25.020Z,32.97
2022-11-05T04:17:26.625Z,35.25
2022-11-05T04:22:50.319Z,29.40
2022-11-05T04:27:51.912Z,32.95
2022-11-05T04:33:14.583Z,38.78
2022-11-05T04:38:18.715Z,42.45
2022-11-05T04:43:20.419Z,41.70
2022-11-05T04:48:22.260Z,32.97
2022-11-05T04:53:23.803Z,30.23
2022-11-05T04:58:25.491Z,30.38
2022-11-05T05:03:27.008Z,36.58
2022-11-05T05:08:28.656Z,28.08
2022-11-05T05:13:30.382Z,29.27
2022-11-05T05:18:31.931Z,33.72
2022-11-05T05:23:33.443Z,30.77
2022-11-05T05:28:35.009Z,30.15
2022-11-05T05:33:36.666Z,25.20
2022-11-05T05:38:38.295Z,25.45
2022-11-05T05:43:39.880Z,31.58
2022-11-05T05:48:42.395Z,31.48
2022-11-05T05:53:44.340Z,25.65
2022-11-05T05:58:46.814Z,29.45
2022-11-05T06:03:48.883Z,32.20
2022-11-05T06:08:50.453Z,31.13
2022-11-05T06:13:52.070Z,33.20
2022-11-05T06:18:53.552Z,29.55
2022-11-05T06:23:55.102Z,37.42
2022-11-05T06:28:56.970Z,26.15
2022-11-05T06:33:58.510Z,27.58
2022-11-05T06:39:00.058Z,46.30
2022-11-05T06:44:01.637Z,25.48
2022-11-05T06:49:03.241Z,31.58
2022-11-05T06:54:05.210Z,27.98
2022-11-05T06:59:08.492Z,32.13
2022-11-05T07:04:12.234Z,25.00
2022-11-05T07:09:13.810Z,41.20
2022-11-05T07:14:15.350Z,30.48
2022-11-05T07:19:16.920Z,30.77
2022-11-05T07:24:18.503Z,26.17
2022-11-05T07:29:20.066Z,22.55
2022-11-05T07:34:21.673Z,23.35
2022-11-05T07:39:23.357Z,23.27
2022-11-05T07:44:24.935Z,28.15
2022-11-05T07:49:26.443Z,27.50
2022-11-05T07:54:28.066Z,26.27
2022-11-05T07:59:29.613Z,25.30
2022-11-05T08:04:31.251Z,24.02
2022-11-05T08:09:32.776Z,21.00
2022-11-05T08:14:34.366Z,23.55
2022-11-05T08:19:35.930Z,22.90
2022-11-05T08:24:37.500Z,19.75
2022-11-05T08:29:39.043Z,16.35
2022-11-05T08:34:40.662Z,28.17
2022-11-05T08:39:42.256Z,21.83
2022-11-05T08:44:44.199Z,23.10
2022-11-05T08:49:45.945Z,17.17
2022-11-05T08:54:47.767Z,20.08
2022-11-05T08:59:49.380Z,21.35
2022-11-05T09:04:51.032Z,15.95
2022-11-05T09:09:52.745Z,16.67
2022-11-05T09:14:54.491Z,21.42
2022-11-05T09:19:56.115Z,19.58
2022-11-05T09:24:57.837Z,14.77
2022-11-05T09:29:59.483Z,21.13
2022-11-05T09:35:01.571Z,16.15
2022-11-05T09:40:03.601Z,15.45
2022-11-05T09:45:10.581Z,18.00
2022-11-05T09:55:35.415Z,16.10
2022-11-05T10:00:37.389Z,12.70
2022-11-05T10:05:40.498Z,14.98
2022-11-05T10:10:46.219Z,15.18
2022-11-05T10:15:57.670Z,12.32
2022-11-05T10:20:59.442Z,15.20
2022-11-05T10:26:09.153Z,10.80
2022-11-05T10:31:14.761Z,12.85
2022-11-05T10:36:29.279Z,11.55
2022-11-05T10:41:52.683Z,15.77
2022-11-05T10:47:24.804Z,15.88
2022-11-05T10:52:35.246Z,9.65
2022-11-05T10:57:39.664Z,5.10
2022-11-05T11:02:50.082Z,8.63
2022-11-05T11:07:55.962Z,12.73
2022-11-05T11:12:59.052Z,9.35
2022-11-05T11:18:25.143Z,10.55
2022-11-05T11:23:27.937Z,6.03
2022-11-05T11:28:37.359Z,8.48
2022-11-05T11:33:43.130Z,6.63
2022-11-05T11:38:45.188Z,10.25
2022-11-05T11:43:47.048Z,5.97
2022-11-05T11:48:49.577Z,10.93
2022-11-05T11:53:57.511Z,9.43
2022-11-05T11:59:15.562Z,7.90
2022-11-05T12:04:39.020Z,8.20
2022-11-05T12:10:13.016Z,9.02
2022-11-05T12:15:39.219Z,6.63
2022-11-05T12:20:57.830Z,7.57
2022-11-05T12:26:33.064Z,7.05
2022-11-05T12:31:45.147Z,9.35
2022-11-05T12:37:16.970Z,13.98
2022-11-05T12:42:33.831Z,5.13
2022-11-05T12:52:56.853Z,13.30
2022-11-05T12:58:12.985Z,7.82
2022-11-05T13:03:22.060Z,10.70
2022-11-05T13:08:39.246Z,6.38
2022-11-05T13:13:53.949Z,6.97
2022-11-05T13:19:05.347Z,4.95
2022-11-05T13:24:22.784Z,8.40
2022-11-05T13:29:27.284Z,4.80
2022-11-05T13:34:33.452Z,11.57
2022-11-05T13:39:43.685Z,10.10
2022-11-05T13:45:00.971Z,13.40
2022-11-05T13:50:41.048Z,8.60
2022-11-05T13:56:01.433Z,7.88
2022-11-05T14:01:09.040Z,4.57
2022-11-05T14:06:10.975Z,7.68
2022-11-05T14:11:27.467Z,7.30
2022-11-05T14:16:47.647Z,5.82
2022-11-05T14:21:51.564Z,4.95
2022-11-05T14:27:02.424Z,3.55
2022-11-05T14:32:19.365Z,5.25
2022-11-05T14:42:27.434Z,5.57
2022-11-05T14:47:33.038Z,5.85
2022-11-05T14:52:35.738Z,3.53
2022-11-05T14:57:43.488Z,6.97
2022-11-05T15:02:57.851Z,4.10
2022-11-05T15:08:20.056Z,5.72
2022-11-05T15:13:32.794Z,5.93
2022-11-05T15:18:45.082Z,6.05
2022-11-05T15:23:48.788Z,6.13
2022-11-05T15:28:52.534Z,5.95
2022-11-05T15:34:18.969Z,4.63
2022-11-05T15:39:40.292Z,6.75
2022-11-05T15:44:48.075Z,9.55
2022-11-05T15:50:09.955Z,11.60
2022-11-05T15:55:14.926Z,7.35
2022-11-05T16:00:28.363Z,8.18
2022-11-05T16:05:42.076Z,15.90
2022-11-05T16:10:48.916Z,8.13
2022-11-05T16:15:59.193Z,12.60
2022-11-05T16:21:08.134Z,11.10
2022-11-05T16:32:00.965Z,14.85
2022-11-05T16:37:04.528Z,13.88
2022-11-05T16:42:36.578Z,10.75
2022-11-05T16:47:38.378Z,6.65
2022-11-05T16:52:40.025Z,9.13
2022-11-05T16:57:44.395Z,11.45
2022-11-05T17:02:46.820Z,9.43
2022-11-05T17:07:48.691Z,7.63
2022-11-05T17:12:50.936Z,12.00
2022-11-05T17:17:55.667Z,9.52
2022-11-05T17:22:58.125Z,12.88
2022-11-05T17:27:59.916Z,12.43
2022-11-05T17:33:02.113Z,15.63
2022-11-05T17:38:03.809Z,13.32
2022-11-05T17:43:09.710Z,11.30
2022-11-05T17:48:12.204Z,13.27
2022-11-05T17:53:16.149Z,8.98
2022-11-05T17:58:17.754Z,10.40
2022-11-05T18:03:19.537Z,12.73
2022-11-05T18:08:21.105Z,8.38
2022-11-05T18:13:22.764Z,16.00
2022-11-05T18:18:24.306Z,18.40
2022-11-05T18:23:26.205Z,27.27
2022-11-05T18:28:29.954Z,25.92
2022-11-05T18:33:31.731Z,45.17
2022-11-05T18:38:33.260Z,30.55
2022-11-05T18:43:34.865Z,24.17
2022-11-05T18:48:36.894Z,25.77
2022-11-05T18:53:39.310Z,22.92
2022-11-05T18:58:41.273Z,19.27
2022-11-05T19:03:42.881Z,20.38
2022-11-05T19:08:44.857Z,36.15
2022-11-05T19:13:46.724Z,26.05
2022-11-05T19:18:48.867Z,20.83
2022-11-05T19:23:51.084Z,21.83
2022-11-05T19:28:52.746Z,15.90
2022-11-05T19:33:55.286Z,13.00
2022-11-05T19:38:59.154Z,14.45
2022-11-05T19:44:03.569Z,12.43
2022-11-05T19:49:05.306Z,15.13
2022-11-05T19:54:08.993Z,14.32
2022-11-05T19:59:11.583Z,14.10
2022-11-05T20:04:15.811Z,16.27
2022-11-05T20:09:22.224Z,13.85
2022-11-05T20:19:26.740Z,20.60
2022-11-05T20:24:28.805Z,15.55
2022-11-05T20:29:35.221Z,14.70
2022-11-05T20:34:37.614Z,28.88
2022-11-05T20:39:39.284Z,42.97
2022-11-05T20:44:41.447Z,47.75
2022-11-05T20:49:43.372Z,57.47
2022-11-05T20:54:45.860Z,56.55
2022-11-05T20:59:47.360Z,58.50
2022-11-05T21:04:49.224Z,50.65
2022-11-05T21:09:50.902Z,46.47
2022-11-05T21:14:53.050Z,44.65
2022-11-05T21:19:54.565Z,32.28
2022-11-05T21:24:56.852Z,51.67
2022-11-05T21:29:58.350Z,37.05
2022-11-05T21:34:59.940Z,39.75
2022-11-05T21:40:01.503Z,31.65
2022-11-05T21:45:03.193Z,27.75
2022-11-05T21:50:05.289Z,38.38
2022-11-05T21:55:26.218Z,27.83
2022-11-05T22:00:27.697Z,26.77
2022-11-05T22:05:32.823Z,26.00
2022-11-05T22:10:34.445Z,22.85
2022-11-05T22:15:36.003Z,22.02
2022-11-05T22:20:39.561Z,27.88
2022-11-05T22:25:41.105Z,20.58
2022-11-05T22:30:42.593Z,23.15
2022-11-05T22:35:44.109Z,19.83
2022-11-05T22:40:45.644Z,19.17
2022-11-05T22:45:47.212Z,21.33
2022-11-05T22:50:48.757Z,19.23
2022-11-05T22:55:50.372Z,18.73
2022-11-05T23:00:51.960Z,19.00
2022-11-05T23:06:05.948Z,19.10
2022-11-05T23:11:38.370Z,16.92
2022-11-05T23:17:00.263Z,16.45
2022-11-05T23:22:20.810Z,20.70
2022-11-05T23:27:22.468Z,17.08
2022-11-05T23:32:24.087Z,15.32
2022-11-05T23:37:46.562Z,16.00
2022-11-05T23:43:07.293Z,15.18
2022-11-05T23:48:32.802Z,14.02
2022-11-05T23:53:36.544Z,15.57
2022-11-05T23:58:39.110Z,14.80
